No data was retrieved for https://query.yahooapis.com/v1/public/yql?q=select+%2A+from+weather.forecast+where+woeid%3D731260&format=xml&u=c



Weather Underground Historische gegevens

Dagelijkse Samenvatting januari 16, 2019 Eenheden:  Metrisch    Engels   Beide
« Vorige Dag
Volgende Dag »
Dagelijkse Wekelijkse Maandelijkse Jaarlijkse Aangepaste
  Huidig: Hoog: Laag: Gemiddeld:
Temperatuur: -15.1 °C -17.8 °C -15.4 °C -14.5 °C
Dauwpunt: -44.1 °C -17.8 °C -44.3 °C -40.7 °C
Vochtigheid: 1 % Humidity % 1 % 4 %
Wind snelheid: 18.2 km/h 0 km/h 7.7 km/h 19.5 km/h
Windvlaag: 33.6 km/h 0 km/h - -
Wind:South - - SW
Luchtdruk: 33876.9 hPa 0 hPa 33876.9 hPa -
Neerslag: 0 mm      
Historical Graphs
 
 
Tabel voor januari 16, 2019
Tijd Temperatuur Dauwpunt Luchtdruk Wind Wind snelheid Windvlaag Vochtigheid Regenval per uur
-17.8 °C -17.8 °C 0 hPa Calm     Humidity % 0 mm
00:00 -14.1 °C -43.4 °C 34242.6 hPa WSW 15.6 km/h 36.2 km/h 1 % 0 mm
00:15 -14.1 °C -43.4 °C 34242.6 hPa WSW 25.9 km/h 33.6 km/h 1 % 0 mm
00:30 -14.1 °C -43.5 °C 34239.2 hPa WSW 20.8 km/h 33.6 km/h 1 % 0 mm
00:45 -14.1 °C -43.4 °C 34235.8 hPa WSW 25.9 km/h 36.2 km/h 1 % 0 mm
01:00 -14.1 °C -43.4 °C 34229.1 hPa SW 15.6 km/h 33.6 km/h 1 % 0 mm
01:15 -14.1 °C -43.4 °C 34225.7 hPa WSW 23.3 km/h 41.4 km/h 1 % 0 mm
01:30 -14.1 °C -43.4 °C 34222.3 hPa SW 15.6 km/h 38.8 km/h 1 % 0 mm
01:45 -14 °C -43.4 °C 34222.3 hPa WSW 18.2 km/h 38.8 km/h 1 % 0 mm
02:00 -14 °C -43.4 °C 34215.5 hPa SW 25.9 km/h 41.4 km/h 1 % 0 mm
02:15 -13.9 °C -43.4 °C 34215.5 hPa WSW 23.3 km/h 38.8 km/h 1 % 0 mm
02:30 -14 °C -43.4 °C 34208.8 hPa SW 20.8 km/h 36.2 km/h 1 % 0 mm
02:45 -13.9 °C -43.4 °C 34202 hPa WSW 36.2 km/h 38.8 km/h 1 % 0 mm
03:00 -13.9 °C -43.3 °C 34198.6 hPa SW 12.9 km/h 38.8 km/h 1 % 0 mm
03:15 -13.9 °C -43.3 °C 34195.2 hPa SW 15.6 km/h 41.4 km/h 1 % 0 mm
03:30 -13.9 °C -43.3 °C 34195.2 hPa WSW 36.2 km/h 51.8 km/h 1 % 0 mm
03:45 -13.8 °C -43.3 °C 34188.4 hPa WSW 18.2 km/h 44.1 km/h 1 % 0 mm
04:00 -13.8 °C -43.3 °C 34185.1 hPa SW 18.2 km/h 36.2 km/h 1 % 0 mm
04:15 -13.8 °C -43.3 °C 34178.3 hPa SW 36.2 km/h 41.4 km/h 1 % 0 mm
04:30 -13.8 °C -43.3 °C 34171.5 hPa SW 23.3 km/h 44.1 km/h 1 % 0 mm
04:45 -13.8 °C -37.4 °C 34168.1 hPa SW 23.3 km/h 44.1 km/h 3 % 0 mm
05:00 -13.8 °C -31.7 °C 34161.4 hPa SW 15.6 km/h 51.8 km/h 8 % 0 mm
05:15 -13.8 °C -30.3 °C 34158 hPa WSW 12.9 km/h 46.7 km/h 10 % 0 mm
05:30 -13.7 °C -27.2 °C 34151.2 hPa SW 18.2 km/h 44.1 km/h 16 % 0 mm
05:45 -13.6 °C -24.6 °C 34141 hPa WSW 38.8 km/h 51.8 km/h 23 % 0 mm
06:00 -13.6 °C -23.2 °C 34134.3 hPa SW 23.3 km/h 46.7 km/h 28 % 0 mm
06:15 -13.5 °C -21.8 °C 34137.7 hPa WSW 25.9 km/h 46.7 km/h 34 % 0 mm
06:30 -13.6 °C -22.1 °C 34134.3 hPa SW 23.3 km/h 38.8 km/h 33 % 0 mm
06:45 -13.7 °C -23.8 °C 34127.5 hPa SW 15.6 km/h 41.4 km/h 26 % 0 mm
07:00 -13.7 °C -25.7 °C 34120.7 hPa SW 15.6 km/h 33.6 km/h 20 % 0 mm
07:15 -13.7 °C -27.6 °C 34114 hPa SW 18.2 km/h 25.9 km/h 15 % 0 mm
07:30 -13.8 °C -31.7 °C 34110.6 hPa SW 12.9 km/h 33.6 km/h 8 % 0 mm
07:45 -13.8 °C -39.7 °C 34110.6 hPa SW 18.2 km/h 33.6 km/h 2 % 0 mm
08:00 -13.9 °C -43.4 °C 34107.2 hPa WSW 23.3 km/h 31.1 km/h 1 % 0 mm
08:15 -14.1 °C -43.4 °C 34103.8 hPa SSW 18.2 km/h 25.9 km/h 1 % 0 mm
08:30 -14.2 °C -43.5 °C 34103.8 hPa SW 15.6 km/h 36.2 km/h 1 % 0 mm
08:45 -14.3 °C -43.6 °C 34103.8 hPa SW 12.9 km/h 38.8 km/h 1 % 0 mm
09:00 -14.4 °C -43.7 °C 34103.8 hPa SW 18.2 km/h 41.4 km/h 1 % 0 mm
09:15 -14.6 °C -43.8 °C 34100.4 hPa SW 15.6 km/h 33.6 km/h 1 % 0 mm
09:30 -14.7 °C -43.8 °C 34097 hPa SW 15.6 km/h 28.5 km/h 1 % 0 mm
09:45 -14.8 °C -43.9 °C 34097 hPa SW 25.9 km/h 38.8 km/h 1 % 0 mm
10:00 -14.9 °C -44 °C 34090.2 hPa SW 18.2 km/h 36.2 km/h 1 % 0 mm
10:15 -15.1 °C -44.1 °C 34086.9 hPa SSW 28.5 km/h 31.1 km/h 1 % 0 mm
10:30 -15.1 °C -44.1 °C 34083.5 hPa SW 20.8 km/h 25.9 km/h 1 % 0 mm
10:45 -15.2 °C -44.2 °C 34080.1 hPa SW 18.2 km/h 46.7 km/h 1 % 0 mm
11:00 -15.2 °C -44.2 °C 34073.3 hPa SSW 18.2 km/h 49.2 km/h 1 % 0 mm
11:15 -15.3 °C -44.2 °C 34069.9 hPa SW 18.2 km/h 38.8 km/h 1 % 0 mm
11:30 -15.3 °C -44.2 °C 34069.9 hPa SW 23.3 km/h 46.7 km/h 1 % 0 mm
11:45 -15.3 °C -44.2 °C 34053 hPa SSW 10.3 km/h 33.6 km/h 1 % 0 mm
12:00 -15.4 °C -44.3 °C 34046.2 hPa SSW 23.3 km/h 41.4 km/h 1 % 0 mm
12:15 -15.4 °C -44.3 °C 34039.5 hPa SW 20.8 km/h 46.7 km/h 1 % 0 mm
12:30 -15.4 °C -44.3 °C 34025.9 hPa SW 23.3 km/h 44.1 km/h 1 % 0 mm
12:45 -15.4 °C -44.3 °C 34025.9 hPa SW 15.6 km/h 44.1 km/h 1 % 0 mm
13:00 -15.4 °C -44.3 °C 34019.1 hPa SW 15.6 km/h 28.5 km/h 1 % 0 mm
13:15 -15.4 °C -44.3 °C 34012.4 hPa SW 12.9 km/h 31.1 km/h 1 % 0 mm
13:30 -15.3 °C -44.2 °C 34002.2 hPa SW 20.8 km/h 38.8 km/h 1 % 0 mm
13:45 -15.2 °C -44.2 °C 33998.8 hPa SW 23.3 km/h 33.6 km/h 1 % 0 mm
14:00 -15 °C -44 °C 33992.1 hPa SW 23.3 km/h 57 km/h 1 % 0 mm
14:15 -14.9 °C -43.9 °C 33985.3 hPa SSW 20.8 km/h 46.7 km/h 1 % 0 mm
14:30 -14.8 °C -43.9 °C 33971.7 hPa SW 23.3 km/h 38.8 km/h 1 % 0 mm
14:45 -14.8 °C -43.9 °C 33961.6 hPa SSW 10.3 km/h 51.8 km/h 1 % 0 mm
15:00 -14.8 °C -43.9 °C 33958.2 hPa SW 18.2 km/h 38.8 km/h 1 % 0 mm
15:15 -14.9 °C -43.9 °C 33948 hPa SSW 20.8 km/h 44.1 km/h 1 % 0 mm
15:30 -14.9 °C -43.9 °C 33944.7 hPa SSW 23.3 km/h 36.2 km/h 1 % 0 mm
15:45 -14.9 °C -43.9 °C 33937.9 hPa SSW 12.9 km/h 25.9 km/h 1 % 0 mm
16:00 -14.8 °C -43.9 °C 33934.5 hPa SW 23.3 km/h 33.6 km/h 1 % 0 mm
16:15 -14.7 °C -43.8 °C 33927.7 hPa SSW 10.3 km/h 41.4 km/h 1 % 0 mm
16:30 -14.7 °C -43.8 °C 33917.6 hPa SSW 12.9 km/h 36.2 km/h 1 % 0 mm
16:45 -14.6 °C -43.8 °C 33910.8 hPa SW 18.2 km/h 25.9 km/h 1 % 0 mm
17:00 -14.6 °C -40.2 °C 33907.4 hPa SSW 15.6 km/h 31.1 km/h 2 % 0 mm
17:15 -14.7 °C -43.8 °C 33900.6 hPa SSW 15.6 km/h 38.8 km/h 1 % 0 mm
17:30 -14.9 °C -43.9 °C 33897.2 hPa SSW 12.9 km/h 20.8 km/h 1 % 0 mm
17:45 -15 °C -44 °C 33887.1 hPa SSW 7.7 km/h 28.5 km/h 1 % 0 mm
18:00 -15.1 °C -44.1 °C 33880.3 hPa SSW 20.8 km/h 20.8 km/h 1 % 0 mm
18:15 -15.1 °C -44.1 °C 33876.9 hPa South 18.2 km/h 33.6 km/h 1 % 0 mm
Gegevens verzameld door Weather Underground - 1.75 mb

Script ontwikkeld door  Jim McMurry - jmcmurry@mwt.net Aangepast voor de template door  Wim van der Kuil - Leuven-Template.eu